sensor_id;sensor_type;location;lat;lon;timestamp;temperature;humidity
62581;DHT22;48640;48.770;9.148;2022-11-20T00:01:14;7.30;99.90
62581;DHT22;48640;48.770;9.148;2022-11-20T00:03:41;7.30;99.90
62581;DHT22;48640;48.770;9.148;2022-11-20T00:06:10;7.40;99.90
62581;DHT22;48640;48.770;9.148;2022-11-20T00:08:39;7.50;99.90
62581;DHT22;48640;48.770;9.148;2022-11-20T00:11:07;7.60;99.90
62581;DHT22;48640;48.770;9.148;2022-11-20T00:13:34;7.60;99.90
62581;DHT22;48640;48.770;9.148;2022-11-20T00:16:03;7.60;99.90
62581;DHT22;48640;48.770;9.148;2022-11-20T00:18:30;7.60;99.90
62581;DHT22;48640;48.770;9.148;2022-11-20T00:21:01;7.60;99.90
62581;DHT22;48640;48.770;9.148;2022-11-20T00:23:28;7.60;99.90
62581;DHT22;48640;48.770;9.148;2022-11-20T00:25:56;7.70;99.90
62581;DHT22;48640;48.770;9.148;2022-11-20T00:28:23;7.70;99.90
62581;DHT22;48640;48.770;9.148;2022-11-20T00:30:50;7.60;99.90
62581;DHT22;48640;48.770;9.148;2022-11-20T00:33:17;7.70;99.90
62581;DHT22;48640;48.770;9.148;2022-11-20T00:35:44;7.70;99.90
62581;DHT22;48640;48.770;9.148;2022-11-20T00:38:11;7.60;99.90
62581;DHT22;48640;48.770;9.148;2022-11-20T00:40:37;7.60;99.90
62581;DHT22;48640;48.770;9.148;2022-11-20T00:43:05;7.60;99.90
62581;DHT22;48640;48.770;9.148;2022-11-20T00:45:32;7.70;99.90
62581;DHT22;48640;48.770;9.148;2022-11-20T00:47:59;7.70;99.90
62581;DHT22;48640;48.770;9.148;2022-11-20T00:50:26;7.70;99.90
62581;DHT22;48640;48.770;9.148;2022-11-20T00:52:53;7.80;99.90
62581;DHT22;48640;48.770;9.148;2022-11-20T00:55:19;7.70;99.90
62581;DHT22;48640;48.770;9.148;2022-11-20T00:57:46;7.70;99.90
62581;DHT22;48640;48.770;9.148;2022-11-20T01:00:15;7.70;99.90
62581;DHT22;48640;48.770;9.148;2022-11-20T01:02:41;7.70;99.70
62581;DHT22;48640;48.770;9.148;2022-11-20T01:05:08;7.90;99.60
62581;DHT22;48640;48.770;9.148;2022-11-20T01:07:35;7.60;99.70
62581;DHT22;48640;48.770;9.148;2022-11-20T01:10:02;7.60;99.90
62581;DHT22;48640;48.770;9.148;2022-11-20T01:12:29;7.60;99.60
62581;DHT22;48640;48.770;9.148;2022-11-20T01:14:56;7.50;99.70
62581;DHT22;48640;48.770;9.148;2022-11-20T01:17:24;7.40;99.80
62581;DHT22;48640;48.770;9.148;2022-11-20T01:19:51;7.40;99.70
62581;DHT22;48640;48.770;9.148;2022-11-20T01:22:17;7.40;99.80
62581;DHT22;48640;48.770;9.148;2022-11-20T01:24:44;7.40;99.90
62581;DHT22;48640;48.770;9.148;2022-11-20T01:27:11;7.40;99.70
62581;DHT22;48640;48.770;9.148;2022-11-20T01:29:38;7.30;99.80
62581;DHT22;48640;48.770;9.148;2022-11-20T01:32:04;7.30;99.50
62581;DHT22;48640;48.770;9.148;2022-11-20T01:34:32;7.30;99.50
62581;DHT22;48640;48.770;9.148;2022-11-20T01:36:59;7.20;99.40
62581;DHT22;48640;48.770;9.148;2022-11-20T01:39:26;7.10;99.60
62581;DHT22;48640;48.770;9.148;2022-11-20T01:41:54;7.00;99.90
62581;DHT22;48640;48.770;9.148;2022-11-20T01:45:00;7.00;99.90
62581;DHT22;48640;48.770;9.148;2022-11-20T01:47:31;6.90;99.90
62581;DHT22;48640;48.770;9.148;2022-11-20T01:50:04;6.90;99.90
62581;DHT22;48640;48.770;9.148;2022-11-20T01:52:34;6.80;99.90
62581;DHT22;48640;48.770;9.148;2022-11-20T01:55:06;6.80;99.90
62581;DHT22;48640;48.770;9.148;2022-11-20T01:57:34;6.80;99.90
62581;DHT22;48640;48.770;9.148;2022-11-20T02:00:05;6.80;99.90
62581;DHT22;48640;48.770;9.148;2022-11-20T02:02:33;6.70;99.90
62581;DHT22;48640;48.770;9.148;2022-11-20T02:05:07;6.70;99.90
62581;DHT22;48640;48.770;9.148;2022-11-20T02:07:36;6.60;99.90
62581;DHT22;48640;48.770;9.148;2022-11-20T02:10:04;6.70;99.90
62581;DHT22;48640;48.770;9.148;2022-11-20T02:12:31;6.80;99.90
62581;DHT22;48640;48.770;9.148;2022-11-20T02:15:15;6.90;99.80
62581;DHT22;48640;48.770;9.148;2022-11-20T02:17:42;7.00;99.60
62581;DHT22;48640;48.770;9.148;2022-11-20T02:20:11;7.00;99.30
62581;DHT22;48640;48.770;9.148;2022-11-20T02:22:43;7.10;99.50
62581;DHT22;48640;48.770;9.148;2022-11-20T02:25:13;7.00;99.50
62581;DHT22;48640;48.770;9.148;2022-11-20T02:27:41;7.00;99.40
62581;DHT22;48640;48.770;9.148;2022-11-20T02:30:09;6.90;99.60
62581;DHT22;48640;48.770;9.148;2022-11-20T02:32:37;6.80;99.90
62581;DHT22;48640;48.770;9.148;2022-11-20T02:35:08;6.80;99.80
62581;DHT22;48640;48.770;9.148;2022-11-20T02:37:38;6.70;99.90
62581;DHT22;48640;48.770;9.148;2022-11-20T02:40:06;6.70;99.90
62581;DHT22;48640;48.770;9.148;2022-11-20T02:42:35;6.70;99.90
62581;DHT22;48640;48.770;9.148;2022-11-20T02:45:02;6.70;99.90
62581;DHT22;48640;48.770;9.148;2022-11-20T02:47:29;6.60;99.90
62581;DHT22;48640;48.770;9.148;2022-11-20T02:49:55;6.60;99.90
62581;DHT22;48640;48.770;9.148;2022-11-20T02:52:22;6.70;99.90
62581;DHT22;48640;48.770;9.148;2022-11-20T02:54:49;6.70;99.90
62581;DHT22;48640;48.770;9.148;2022-11-20T02:57:16;6.80;99.90
62581;DHT22;48640;48.770;9.148;2022-11-20T02:59:44;6.80;99.90
62581;DHT22;48640;48.770;9.148;2022-11-20T03:02:11;7.00;99.90
62581;DHT22;48640;48.770;9.148;2022-11-20T03:04:38;6.90;99.90
62581;DHT22;48640;48.770;9.148;2022-11-20T03:07:04;6.90;99.80
62581;DHT22;48640;48.770;9.148;2022-11-20T03:09:31;6.90;99.90
62581;DHT22;48640;48.770;9.148;2022-11-20T03:11:58;6.90;99.90
62581;DHT22;48640;48.770;9.148;2022-11-20T03:14:25;7.00;99.90
62581;DHT22;48640;48.770;9.148;2022-11-20T03:16:53;7.00;99.90
62581;DHT22;48640;48.770;9.148;2022-11-20T03:19:19;7.10;99.90
62581;DHT22;48640;48.770;9.148;2022-11-20T03:21:46;7.00;99.90
62581;DHT22;48640;48.770;9.148;2022-11-20T03:24:13;6.80;99.90
62581;DHT22;48640;48.770;9.148;2022-11-20T03:26:40;6.80;99.90
62581;DHT22;48640;48.770;9.148;2022-11-20T03:29:07;6.80;99.90
62581;DHT22;48640;48.770;9.148;2022-11-20T03:31:36;6.80;99.90
62581;DHT22;48640;48.770;9.148;2022-11-20T03:34:07;6.80;99.90
62581;DHT22;48640;48.770;9.148;2022-11-20T03:36:34;6.70;99.90
62581;DHT22;48640;48.770;9.148;2022-11-20T03:39:01;6.70;99.90
62581;DHT22;48640;48.770;9.148;2022-11-20T03:41:29;6.70;99.90
62581;DHT22;48640;48.770;9.148;2022-11-20T03:43:58;6.60;99.90
62581;DHT22;48640;48.770;9.148;2022-11-20T03:46:25;6.50;99.90
62581;DHT22;48640;48.770;9.148;2022-11-20T03:48:52;6.50;99.90
62581;DHT22;48640;48.770;9.148;2022-11-20T03:51:22;6.40;99.90
62581;DHT22;48640;48.770;9.148;2022-11-20T03:53:51;6.50;99.90
62581;DHT22;48640;48.770;9.148;2022-11-20T03:56:20;6.30;99.90
62581;DHT22;48640;48.770;9.148;2022-11-20T03:58:47;6.30;99.90
62581;DHT22;48640;48.770;9.148;2022-11-20T04:01:15;6.20;99.90
62581;DHT22;48640;48.770;9.148;2022-11-20T04:03:43;6.20;99.90
62581;DHT22;48640;48.770;9.148;2022-11-20T04:06:12;6.10;99.90
62581;DHT22;48640;48.770;9.148;2022-11-20T04:08:41;6.10;99.90
62581;DHT22;48640;48.770;9.148;2022-11-20T04:11:10;6.00;99.90
62581;DHT22;48640;48.770;9.148;2022-11-20T04:13:37;5.90;99.90
62581;DHT22;48640;48.770;9.148;2022-11-20T04:16:04;5.90;99.90
62581;DHT22;48640;48.770;9.148;2022-11-20T04:18:31;6.00;99.90
62581;DHT22;48640;48.770;9.148;2022-11-20T04:20:58;6.00;99.90
62581;DHT22;48640;48.770;9.148;2022-11-20T04:23:25;6.00;99.90
62581;DHT22;48640;48.770;9.148;2022-11-20T04:25:54;5.90;99.90
62581;DHT22;48640;48.770;9.148;2022-11-20T04:28:20;5.90;99.90
62581;DHT22;48640;48.770;9.148;2022-11-20T04:30:47;6.00;99.90
62581;DHT22;48640;48.770;9.148;2022-11-20T04:33:14;6.00;99.90
62581;DHT22;48640;48.770;9.148;2022-11-20T04:35:41;6.10;99.90
62581;DHT22;48640;48.770;9.148;2022-11-20T04:38:08;6.20;99.90
62581;DHT22;48640;48.770;9.148;2022-11-20T04:40:34;6.30;99.90
62581;DHT22;48640;48.770;9.148;2022-11-20T04:43:02;6.30;99.90
62581;DHT22;48640;48.770;9.148;2022-11-20T04:45:29;6.30;99.90
62581;DHT22;48640;48.770;9.148;2022-11-20T04:47:56;6.40;99.90
62581;DHT22;48640;48.770;9.148;2022-11-20T04:50:23;6.40;99.90
62581;DHT22;48640;48.770;9.148;2022-11-20T04:52:49;6.30;99.90
62581;DHT22;48640;48.770;9.148;2022-11-20T04:55:16;6.30;99.90
62581;DHT22;48640;48.770;9.148;2022-11-20T04:57:43;6.40;99.90
62581;DHT22;48640;48.770;9.148;2022-11-20T05:00:12;6.40;99.90
62581;DHT22;48640;48.770;9.148;2022-11-20T05:02:39;6.30;99.90
62581;DHT22;48640;48.770;9.148;2022-11-20T05:05:07;6.40;99.90
62581;DHT22;48640;48.770;9.148;2022-11-20T05:07:33;6.40;99.90
62581;DHT22;48640;48.770;9.148;2022-11-20T05:10:00;6.50;99.90
62581;DHT22;48640;48.770;9.148;2022-11-20T05:12:27;6.50;99.90
62581;DHT22;48640;48.770;9.148;2022-11-20T05:14:54;6.60;99.90
62581;DHT22;48640;48.770;9.148;2022-11-20T05:17:22;6.60;99.90
62581;DHT22;48640;48.770;9.148;2022-11-20T05:19:49;6.60;99.90
62581;DHT22;48640;48.770;9.148;2022-11-20T05:22:15;6.70;99.90
62581;DHT22;48640;48.770;9.148;2022-11-20T05:24:42;6.80;99.90
62581;DHT22;48640;48.770;9.148;2022-11-20T05:27:09;6.80;99.90
62581;DHT22;48640;48.770;9.148;2022-11-20T05:29:36;6.80;99.90
62581;DHT22;48640;48.770;9.148;2022-11-20T05:32:03;6.80;99.90
62581;DHT22;48640;48.770;9.148;2022-11-20T05:34:32;6.80;99.90
62581;DHT22;48640;48.770;9.148;2022-11-20T05:36:59;6.80;99.90
62581;DHT22;48640;48.770;9.148;2022-11-20T05:39:26;6.80;99.90
62581;DHT22;48640;48.770;9.148;2022-11-20T05:41:52;6.80;99.90
62581;DHT22;48640;48.770;9.148;2022-11-20T05:44:33;6.80;99.90
62581;DHT22;48640;48.770;9.148;2022-11-20T05:47:00;6.90;99.90
62581;DHT22;48640;48.770;9.148;2022-11-20T05:49:27;6.80;99.90
62581;DHT22;48640;48.770;9.148;2022-11-20T05:51:55;6.80;99.90
62581;DHT22;48640;48.770;9.148;2022-11-20T05:54:21;6.80;99.90
62581;DHT22;48640;48.770;9.148;2022-11-20T05:56:48;6.80;99.90
62581;DHT22;48640;48.770;9.148;2022-11-20T05:59:15;6.90;99.90
62581;DHT22;48640;48.770;9.148;2022-11-20T06:01:42;6.90;99.90
62581;DHT22;48640;48.770;9.148;2022-11-20T06:04:08;6.90;99.90
62581;DHT22;48640;48.770;9.148;2022-11-20T06:06:35;6.90;99.90
62581;DHT22;48640;48.770;9.148;2022-11-20T06:09:03;6.90;99.90
62581;DHT22;48640;48.770;9.148;2022-11-20T06:11:30;7.00;99.90
62581;DHT22;48640;48.770;9.148;2022-11-20T06:13:57;7.10;99.90
62581;DHT22;48640;48.770;9.148;2022-11-20T06:16:24;7.20;99.90
62581;DHT22;48640;48.770;9.148;2022-11-20T06:18:51;7.10;99.90
62581;DHT22;48640;48.770;9.148;2022-11-20T06:21:19;7.20;99.90
62581;DHT22;48640;48.770;9.148;2022-11-20T06:23:47;7.30;99.90
62581;DHT22;48640;48.770;9.148;2022-11-20T06:26:16;7.30;99.70
62581;DHT22;48640;48.770;9.148;2022-11-20T06:28:43;7.30;99.70
62581;DHT22;48640;48.770;9.148;2022-11-20T06:31:11;7.20;99.50
62581;DHT22;48640;48.770;9.148;2022-11-20T06:33:39;7.20;99.70
62581;DHT22;48640;48.770;9.148;2022-11-20T06:36:06;7.10;99.90
62581;DHT22;48640;48.770;9.148;2022-11-20T06:38:33;7.20;99.90
62581;DHT22;48640;48.770;9.148;2022-11-20T06:40:59;7.10;99.60
62581;DHT22;48640;48.770;9.148;2022-11-20T06:43:28;7.10;99.70
62581;DHT22;48640;48.770;9.148;2022-11-20T06:45:57;7.10;99.80
62581;DHT22;48640;48.770;9.148;2022-11-20T06:48:26;7.10;99.70
62581;DHT22;48640;48.770;9.148;2022-11-20T06:50:53;7.00;99.80
62581;DHT22;48640;48.770;9.148;2022-11-20T06:53:20;7.00;99.90
62581;DHT22;48640;48.770;9.148;2022-11-20T06:55:48;7.00;99.90
62581;DHT22;48640;48.770;9.148;2022-11-20T06:58:15;7.00;99.70
62581;DHT22;48640;48.770;9.148;2022-11-20T07:00:44;7.00;99.70
62581;DHT22;48640;48.770;9.148;2022-11-20T07:03:11;7.00;99.80
62581;DHT22;48640;48.770;9.148;2022-11-20T07:05:38;7.00;99.80
62581;DHT22;48640;48.770;9.148;2022-11-20T07:08:06;6.90;99.90
62581;DHT22;48640;48.770;9.148;2022-11-20T07:10:33;6.90;99.80
62581;DHT22;48640;48.770;9.148;2022-11-20T07:13:00;7.00;99.90
62581;DHT22;48640;48.770;9.148;2022-11-20T07:15:27;7.00;99.90
62581;DHT22;48640;48.770;9.148;2022-11-20T07:17:55;7.10;99.80
62581;DHT22;48640;48.770;9.148;2022-11-20T07:20:24;7.20;99.50
62581;DHT22;48640;48.770;9.148;2022-11-20T07:22:53;7.20;99.30
62581;DHT22;48640;48.770;9.148;2022-11-20T07:25:21;7.20;99.30
62581;DHT22;48640;48.770;9.148;2022-11-20T07:27:47;7.20;99.30
62581;DHT22;48640;48.770;9.148;2022-11-20T07:30:14;7.30;99.40
62581;DHT22;48640;48.770;9.148;2022-11-20T07:32:41;7.30;99.40
62581;DHT22;48640;48.770;9.148;2022-11-20T07:35:09;7.30;99.40
62581;DHT22;48640;48.770;9.148;2022-11-20T07:37:36;7.40;99.30
62581;DHT22;48640;48.770;9.148;2022-11-20T07:40:04;7.40;99.10
62581;DHT22;48640;48.770;9.148;2022-11-20T07:42:31;7.40;99.10
62581;DHT22;48640;48.770;9.148;2022-11-20T07:44:57;7.40;99.20
62581;DHT22;48640;48.770;9.148;2022-11-20T07:47:24;7.40;99.10
62581;DHT22;48640;48.770;9.148;2022-11-20T07:49:51;7.50;99.30
62581;DHT22;48640;48.770;9.148;2022-11-20T07:52:19;7.60;98.90
62581;DHT22;48640;48.770;9.148;2022-11-20T07:54:46;7.70;98.60
62581;DHT22;48640;48.770;9.148;2022-11-20T07:57:13;7.70;98.50
62581;DHT22;48640;48.770;9.148;2022-11-20T07:59:40;7.70;98.40
62581;DHT22;48640;48.770;9.148;2022-11-20T08:02:09;7.80;98.30
62581;DHT22;48640;48.770;9.148;2022-11-20T08:04:36;7.90;98.20
62581;DHT22;48640;48.770;9.148;2022-11-20T08:07:03;8.00;98.20
62581;DHT22;48640;48.770;9.148;2022-11-20T08:09:31;8.00;98.00
62581;DHT22;48640;48.770;9.148;2022-11-20T08:11:59;7.90;97.90
62581;DHT22;48640;48.770;9.148;2022-11-20T08:14:43;8.00;97.80
62581;DHT22;48640;48.770;9.148;2022-11-20T08:17:09;8.00;98.00
62581;DHT22;48640;48.770;9.148;2022-11-20T08:19:36;8.10;98.00
62581;DHT22;48640;48.770;9.148;2022-11-20T08:22:03;8.10;98.00
62581;DHT22;48640;48.770;9.148;2022-11-20T08:24:31;8.10;98.20
62581;DHT22;48640;48.770;9.148;2022-11-20T08:26:58;8.20;97.90
62581;DHT22;48640;48.770;9.148;2022-11-20T08:29:26;8.30;97.70
62581;DHT22;48640;48.770;9.148;2022-11-20T08:31:53;8.40;97.70
62581;DHT22;48640;48.770;9.148;2022-11-20T08:34:19;8.40;97.60
62581;DHT22;48640;48.770;9.148;2022-11-20T08:36:46;8.40;97.50
62581;DHT22;48640;48.770;9.148;2022-11-20T08:39:14;8.40;97.40
62581;DHT22;48640;48.770;9.148;2022-11-20T08:41:42;8.30;97.60
62581;DHT22;48640;48.770;9.148;2022-11-20T08:44:09;8.10;97.80
62581;DHT22;48640;48.770;9.148;2022-11-20T08:46:36;8.10;98.00
62581;DHT22;48640;48.770;9.148;2022-11-20T08:49:04;8.20;98.30
62581;DHT22;48640;48.770;9.148;2022-11-20T08:51:31;8.40;98.20
62581;DHT22;48640;48.770;9.148;2022-11-20T08:53:58;8.60;97.50
62581;DHT22;48640;48.770;9.148;2022-11-20T08:56:25;8.70;97.00
62581;DHT22;48640;48.770;9.148;2022-11-20T08:58:53;8.80;97.00
62581;DHT22;48640;48.770;9.148;2022-11-20T09:01:21;8.90;96.90
62581;DHT22;48640;48.770;9.148;2022-11-20T09:03:48;8.90;96.90
62581;DHT22;48640;48.770;9.148;2022-11-20T09:06:15;9.10;96.90
62581;DHT22;48640;48.770;9.148;2022-11-20T09:08:42;9.20;96.50
62581;DHT22;48640;48.770;9.148;2022-11-20T09:11:09;9.20;96.40
62581;DHT22;48640;48.770;9.148;2022-11-20T09:13:36;9.30;96.10
62581;DHT22;48640;48.770;9.148;2022-11-20T09:16:07;9.20;96.20
62581;DHT22;48640;48.770;9.148;2022-11-20T09:18:35;9.10;96.40
62581;DHT22;48640;48.770;9.148;2022-11-20T09:21:04;9.20;97.40
62581;DHT22;48640;48.770;9.148;2022-11-20T09:23:33;9.00;96.90
62581;DHT22;48640;48.770;9.148;2022-11-20T09:26:02;9.00;96.60
62581;DHT22;48640;48.770;9.148;2022-11-20T09:28:30;9.10;97.30
62581;DHT22;48640;48.770;9.148;2022-11-20T09:30:56;9.00;96.80
62581;DHT22;48640;48.770;9.148;2022-11-20T09:33:24;8.90;97.60
62581;DHT22;48640;48.770;9.148;2022-11-20T09:35:51;8.90;97.40
62581;DHT22;48640;48.770;9.148;2022-11-20T09:38:18;8.80;97.40
62581;DHT22;48640;48.770;9.148;2022-11-20T09:40:49;8.80;97.60
62581;DHT22;48640;48.770;9.148;2022-11-20T09:43:21;8.90;97.40
62581;DHT22;48640;48.770;9.148;2022-11-20T09:45:59;9.00;97.30
62581;DHT22;48640;48.770;9.148;2022-11-20T09:48:45;9.00;96.90
62581;DHT22;48640;48.770;9.148;2022-11-20T09:51:23;9.00;96.60
62581;DHT22;48640;48.770;9.148;2022-11-20T09:54:00;9.00;96.60
62581;DHT22;48640;48.770;9.148;2022-11-20T09:56:33;9.00;96.40
62581;DHT22;48640;48.770;9.148;2022-11-20T09:59:04;9.00;96.40
62581;DHT22;48640;48.770;9.148;2022-11-20T10:01:34;9.00;96.00
62581;DHT22;48640;48.770;9.148;2022-11-20T10:04:04;9.00;95.90
62581;DHT22;48640;48.770;9.148;2022-11-20T10:06:35;8.80;96.00
62581;DHT22;48640;48.770;9.148;2022-11-20T10:09:18;8.90;96.50
62581;DHT22;48640;48.770;9.148;2022-11-20T10:11:52;8.80;96.70
62581;DHT22;48640;48.770;9.148;2022-11-20T10:14:28;8.90;97.20
62581;DHT22;48640;48.770;9.148;2022-11-20T10:17:03;8.90;97.30
62581;DHT22;48640;48.770;9.148;2022-11-20T10:19:47;8.80;97.10
62581;DHT22;48640;48.770;9.148;2022-11-20T10:22:31;9.00;97.20
62581;DHT22;48640;48.770;9.148;2022-11-20T10:25:03;9.20;97.00
62581;DHT22;48640;48.770;9.148;2022-11-20T10:27:48;9.00;97.60
62581;DHT22;48640;48.770;9.148;2022-11-20T10:30:19;9.00;98.20
62581;DHT22;48640;48.770;9.148;2022-11-20T10:32:52;9.00;99.10
62581;DHT22;48640;48.770;9.148;2022-11-20T10:35:25;8.80;99.90
62581;DHT22;48640;48.770;9.148;2022-11-20T10:37:56;8.70;99.90
62581;DHT22;48640;48.770;9.148;2022-11-20T10:40:30;8.70;99.90
62581;DHT22;48640;48.770;9.148;2022-11-20T10:43:01;8.70;99.90
62581;DHT22;48640;48.770;9.148;2022-11-20T10:45:38;8.80;99.90
62581;DHT22;48640;48.770;9.148;2022-11-20T10:48:14;8.50;99.90
62581;DHT22;48640;48.770;9.148;2022-11-20T10:50:53;8.50;99.90
62581;DHT22;48640;48.770;9.148;2022-11-20T10:56:17;8.50;99.90
62581;DHT22;48640;48.770;9.148;2022-11-20T10:58:52;8.50;99.90
62581;DHT22;48640;48.770;9.148;2022-11-20T11:01:21;8.50;99.90
62581;DHT22;48640;48.770;9.148;2022-11-20T11:03:49;8.60;99.90
62581;DHT22;48640;48.770;9.148;2022-11-20T11:06:24;8.70;99.90
62581;DHT22;48640;48.770;9.148;2022-11-20T11:08:53;8.80;99.90
62581;DHT22;48640;48.770;9.148;2022-11-20T11:11:23;8.90;99.90
62581;DHT22;48640;48.770;9.148;2022-11-20T11:13:51;8.90;99.90
62581;DHT22;48640;48.770;9.148;2022-11-20T11:16:21;8.90;99.90
62581;DHT22;48640;48.770;9.148;2022-11-20T11:18:49;8.90;99.90
62581;DHT22;48640;48.770;9.148;2022-11-20T11:21:24;9.00;99.90
62581;DHT22;48640;48.770;9.148;2022-11-20T11:23:59;9.10;99.90
62581;DHT22;48640;48.770;9.148;2022-11-20T11:26:28;9.20;99.90
62581;DHT22;48640;48.770;9.148;2022-11-20T11:28:57;9.20;99.90
62581;DHT22;48640;48.770;9.148;2022-11-20T11:31:25;9.10;99.90
62581;DHT22;48640;48.770;9.148;2022-11-20T11:33:52;9.10;99.90
62581;DHT22;48640;48.770;9.148;2022-11-20T11:36:23;8.70;99.90
62581;DHT22;48640;48.770;9.148;2022-11-20T11:38:52;8.60;99.90
62581;DHT22;48640;48.770;9.148;2022-11-20T11:41:22;8.60;99.90
62581;DHT22;48640;48.770;9.148;2022-11-20T11:43:52;8.60;99.90
62581;DHT22;48640;48.770;9.148;2022-11-20T11:46:39;8.60;99.90
62581;DHT22;48640;48.770;9.148;2022-11-20T11:49:16;8.60;99.90
62581;DHT22;48640;48.770;9.148;2022-11-20T11:52:04;8.50;99.90
62581;DHT22;48640;48.770;9.148;2022-11-20T11:54:35;8.50;99.90
62581;DHT22;48640;48.770;9.148;2022-11-20T11:57:10;8.50;99.90
62581;DHT22;48640;48.770;9.148;2022-11-20T11:59:46;8.50;99.90
62581;DHT22;48640;48.770;9.148;2022-11-20T12:02:27;8.50;99.90
62581;DHT22;48640;48.770;9.148;2022-11-20T12:04:59;8.60;99.90
62581;DHT22;48640;48.770;9.148;2022-11-20T12:07:38;8.60;99.90
62581;DHT22;48640;48.770;9.148;2022-11-20T12:10:15;8.60;99.90
62581;DHT22;48640;48.770;9.148;2022-11-20T12:12:46;8.70;99.90
62581;DHT22;48640;48.770;9.148;2022-11-20T12:15:26;8.60;99.90
62581;DHT22;48640;48.770;9.148;2022-11-20T12:17:53;8.70;99.50
62581;DHT22;48640;48.770;9.148;2022-11-20T12:20:20;8.90;99.20
62581;DHT22;48640;48.770;9.148;2022-11-20T12:22:55;9.00;99.20
62581;DHT22;48640;48.770;9.148;2022-11-20T12:25:25;9.10;99.30
62581;DHT22;48640;48.770;9.148;2022-11-20T12:31:07;9.30;97.80
62581;DHT22;48640;48.770;9.148;2022-11-20T12:33:50;9.40;97.60
62581;DHT22;48640;48.770;9.148;2022-11-20T12:36:31;9.20;95.40
62581;DHT22;48640;48.770;9.148;2022-11-20T12:39:12;9.30;95.40
62581;DHT22;48640;48.770;9.148;2022-11-20T12:41:51;9.20;94.90
62581;DHT22;48640;48.770;9.148;2022-11-20T12:50:37;9.30;92.40
62581;DHT22;48640;48.770;9.148;2022-11-20T12:53:14;9.20;93.10
62581;DHT22;48640;48.770;9.148;2022-11-20T12:55:50;9.20;91.50
62581;DHT22;48640;48.770;9.148;2022-11-20T12:58:30;9.10;91.20
62581;DHT22;48640;48.770;9.148;2022-11-20T13:01:03;9.10;91.00
62581;DHT22;48640;48.770;9.148;2022-11-20T13:03:56;9.00;90.80
62581;DHT22;48640;48.770;9.148;2022-11-20T13:06:24;9.00;90.60
62581;DHT22;48640;48.770;9.148;2022-11-20T13:08:53;9.10;91.30
62581;DHT22;48640;48.770;9.148;2022-11-20T13:11:26;9.10;91.00
62581;DHT22;48640;48.770;9.148;2022-11-20T13:14:08;9.40;91.30
62581;DHT22;48640;48.770;9.148;2022-11-20T13:16:41;9.60;91.00
62581;DHT22;48640;48.770;9.148;2022-11-20T13:19:13;9.70;89.80
62581;DHT22;48640;48.770;9.148;2022-11-20T13:21:42;9.70;88.50
62581;DHT22;48640;48.770;9.148;2022-11-20T13:24:22;9.80;88.30
62581;DHT22;48640;48.770;9.148;2022-11-20T13:27:04;9.70;88.90
62581;DHT22;48640;48.770;9.148;2022-11-20T13:29:32;9.70;89.40
62581;DHT22;48640;48.770;9.148;2022-11-20T13:32:05;9.80;86.90
62581;DHT22;48640;48.770;9.148;2022-11-20T13:34:33;9.70;88.30
62581;DHT22;48640;48.770;9.148;2022-11-20T13:37:00;9.60;88.10
62581;DHT22;48640;48.770;9.148;2022-11-20T13:39:30;9.50;90.60
62581;DHT22;48640;48.770;9.148;2022-11-20T13:42:00;9.40;88.00
62581;DHT22;48640;48.770;9.148;2022-11-20T13:44:31;9.20;88.50
62581;DHT22;48640;48.770;9.148;2022-11-20T13:46:59;9.10;88.60
62581;DHT22;48640;48.770;9.148;2022-11-20T13:49:30;9.00;89.90
62581;DHT22;48640;48.770;9.148;2022-11-20T13:52:15;9.00;90.00
62581;DHT22;48640;48.770;9.148;2022-11-20T13:55:05;9.10;88.80
62581;DHT22;48640;48.770;9.148;2022-11-20T13:57:50;9.10;90.10
62581;DHT22;48640;48.770;9.148;2022-11-20T14:00:19;9.20;90.70
62581;DHT22;48640;48.770;9.148;2022-11-20T14:02:57;9.20;91.40
62581;DHT22;48640;48.770;9.148;2022-11-20T14:05:26;9.30;91.70
62581;DHT22;48640;48.770;9.148;2022-11-20T14:07:54;9.30;92.60
62581;DHT22;48640;48.770;9.148;2022-11-20T14:10:23;9.00;92.50
62581;DHT22;48640;48.770;9.148;2022-11-20T14:12:54;8.80;93.00
62581;DHT22;48640;48.770;9.148;2022-11-20T14:15:26;8.60;93.80
62581;DHT22;48640;48.770;9.148;2022-11-20T14:17:53;8.70;94.60
62581;DHT22;48640;48.770;9.148;2022-11-20T14:20:24;8.60;94.70
62581;DHT22;48640;48.770;9.148;2022-11-20T14:22:53;8.50;94.90
62581;DHT22;48640;48.770;9.148;2022-11-20T14:25:21;8.50;95.10
62581;DHT22;48640;48.770;9.148;2022-11-20T14:27:55;8.50;95.20
62581;DHT22;48640;48.770;9.148;2022-11-20T14:30:23;8.50;95.80
62581;DHT22;48640;48.770;9.148;2022-11-20T14:32:51;8.40;96.20
62581;DHT22;48640;48.770;9.148;2022-11-20T14:35:23;8.40;95.90
62581;DHT22;48640;48.770;9.148;2022-11-20T14:37:51;8.50;95.90
62581;DHT22;48640;48.770;9.148;2022-11-20T14:40:28;8.60;95.10
62581;DHT22;48640;48.770;9.148;2022-11-20T14:42:57;8.50;94.80
62581;DHT22;48640;48.770;9.148;2022-11-20T14:45:25;8.40;95.30
62581;DHT22;48640;48.770;9.148;2022-11-20T14:47:54;8.50;96.30
62581;DHT22;48640;48.770;9.148;2022-11-20T14:50:23;8.60;95.30
62581;DHT22;48640;48.770;9.148;2022-11-20T14:52:51;8.40;95.00
62581;DHT22;48640;48.770;9.148;2022-11-20T14:55:29;8.40;95.30
62581;DHT22;48640;48.770;9.148;2022-11-20T14:58:00;8.40;94.30
62581;DHT22;48640;48.770;9.148;2022-11-20T15:00:28;8.60;94.50
62581;DHT22;48640;48.770;9.148;2022-11-20T15:02:56;8.50;94.30
62581;DHT22;48640;48.770;9.148;2022-11-20T15:05:25;8.50;94.60
62581;DHT22;48640;48.770;9.148;2022-11-20T15:08:05;8.50;94.60
62581;DHT22;48640;48.770;9.148;2022-11-20T15:10:33;8.50;94.50
62581;DHT22;48640;48.770;9.148;2022-11-20T15:13:03;8.40;94.10
62581;DHT22;48640;48.770;9.148;2022-11-20T15:15:35;8.50;94.40
62581;DHT22;48640;48.770;9.148;2022-11-20T15:18:02;8.40;95.50
62581;DHT22;48640;48.770;9.148;2022-11-20T15:20:31;8.40;95.80
62581;DHT22;48640;48.770;9.148;2022-11-20T15:22:59;8.20;95.20
62581;DHT22;48640;48.770;9.148;2022-11-20T15:25:26;8.20;96.30
62581;DHT22;48640;48.770;9.148;2022-11-20T15:27:55;8.20;96.70
62581;DHT22;48640;48.770;9.148;2022-11-20T15:30:23;8.10;96.90
62581;DHT22;48640;48.770;9.148;2022-11-20T15:32:50;8.10;97.40
62581;DHT22;48640;48.770;9.148;2022-11-20T15:35:17;8.10;97.40
62581;DHT22;48640;48.770;9.148;2022-11-20T15:37:44;8.00;97.40
62581;DHT22;48640;48.770;9.148;2022-11-20T15:40:11;8.00;97.50
62581;DHT22;48640;48.770;9.148;2022-11-20T15:42:38;8.00;97.70
62581;DHT22;48640;48.770;9.148;2022-11-20T15:45:28;7.90;97.40
62581;DHT22;48640;48.770;9.148;2022-11-20T15:47:55;7.90;97.90
62581;DHT22;48640;48.770;9.148;2022-11-20T15:50:24;7.90;96.80
62581;DHT22;48640;48.770;9.148;2022-11-20T15:52:53;7.80;96.40
62581;DHT22;48640;48.770;9.148;2022-11-20T15:55:20;7.80;96.80
62581;DHT22;48640;48.770;9.148;2022-11-20T15:57:47;7.80;97.50
62581;DHT22;48640;48.770;9.148;2022-11-20T16:00:15;7.80;97.50
62581;DHT22;48640;48.770;9.148;2022-11-20T16:02:43;7.80;97.40
62581;DHT22;48640;48.770;9.148;2022-11-20T16:05:11;7.80;97.90
62581;DHT22;48640;48.770;9.148;2022-11-20T16:07:38;7.80;97.70
62581;DHT22;48640;48.770;9.148;2022-11-20T16:10:05;7.80;96.50
62581;DHT22;48640;48.770;9.148;2022-11-20T16:12:32;7.80;97.60